sensor_id;sensor_type;location;lat;lon;timestamp;temperature;humidity
6520;DHT22;3293;51.690;5.982;2023-05-09T00:01:05;15.40;99.90
6520;DHT22;3293;51.690;5.982;2023-05-09T00:06:06;15.50;99.90
6520;DHT22;3293;51.690;5.982;2023-05-09T00:11:06;15.50;99.90
6520;DHT22;3293;51.690;5.982;2023-05-09T00:16:07;15.60;99.90
6520;DHT22;3293;51.690;5.982;2023-05-09T00:21:12;15.50;99.90
6520;DHT22;3293;51.690;5.982;2023-05-09T00:26:27;15.50;99.90
6520;DHT22;3293;51.690;5.982;2023-05-09T00:31:28;15.50;99.90
6520;DHT22;3293;51.690;5.982;2023-05-09T00:36:28;15.50;99.90
6520;DHT22;3293;51.690;5.982;2023-05-09T00:41:29;15.50;99.90
6520;DHT22;3293;51.690;5.982;2023-05-09T00:46:30;15.40;99.90
6520;DHT22;3293;51.690;5.982;2023-05-09T00:51:31;15.40;99.90
6520;DHT22;3293;51.690;5.982;2023-05-09T00:56:32;15.40;99.90
6520;DHT22;3293;51.690;5.982;2023-05-09T01:01:56;15.50;99.90
6520;DHT22;3293;51.690;5.982;2023-05-09T01:07:05;15.50;99.90
6520;DHT22;3293;51.690;5.982;2023-05-09T01:12:34;15.50;99.90
6520;DHT22;3293;51.690;5.982;2023-05-09T01:18:16;15.50;99.90
6520;DHT22;3293;51.690;5.982;2023-05-09T01:34:12;15.60;99.90
6520;DHT22;3293;51.690;5.982;2023-05-09T01:39:16;15.50;99.90
6520;DHT22;3293;51.690;5.982;2023-05-09T01:44:21;15.40;99.90
6520;DHT22;3293;51.690;5.982;2023-05-09T01:49:23;15.50;99.90
6520;DHT22;3293;51.690;5.982;2023-05-09T01:54:24;15.40;99.90
6520;DHT22;3293;51.690;5.982;2023-05-09T01:59:27;15.40;99.90
6520;DHT22;3293;51.690;5.982;2023-05-09T02:04:36;15.50;99.90
6520;DHT22;3293;51.690;5.982;2023-05-09T02:09:36;15.50;99.90
6520;DHT22;3293;51.690;5.982;2023-05-09T02:14:40;15.40;99.90
6520;DHT22;3293;51.690;5.982;2023-05-09T02:19:42;15.40;99.90
6520;DHT22;3293;51.690;5.982;2023-05-09T02:24:43;15.40;99.90
6520;DHT22;3293;51.690;5.982;2023-05-09T02:29:49;15.40;99.90
6520;DHT22;3293;51.690;5.982;2023-05-09T02:34:52;15.40;99.90
6520;DHT22;3293;51.690;5.982;2023-05-09T02:39:54;15.40;99.90
6520;DHT22;3293;51.690;5.982;2023-05-09T02:44:55;15.40;99.90
6520;DHT22;3293;51.690;5.982;2023-05-09T02:50:10;15.30;99.90
6520;DHT22;3293;51.690;5.982;2023-05-09T02:55:10;15.20;99.90
6520;DHT22;3293;51.690;5.982;2023-05-09T03:00:11;15.20;99.90
6520;DHT22;3293;51.690;5.982;2023-05-09T03:05:11;15.20;99.90
6520;DHT22;3293;51.690;5.982;2023-05-09T03:10:11;15.20;99.90
6520;DHT22;3293;51.690;5.982;2023-05-09T03:15:11;15.20;99.90
6520;DHT22;3293;51.690;5.982;2023-05-09T03:20:12;15.10;99.90
6520;DHT22;3293;51.690;5.982;2023-05-09T03:25:12;15.10;99.90
6520;DHT22;3293;51.690;5.982;2023-05-09T03:30:13;15.10;99.90
6520;DHT22;3293;51.690;5.982;2023-05-09T03:35:13;15.10;99.90
6520;DHT22;3293;51.690;5.982;2023-05-09T03:40:13;15.10;99.90
6520;DHT22;3293;51.690;5.982;2023-05-09T03:45:14;15.00;99.90
6520;DHT22;3293;51.690;5.982;2023-05-09T03:50:14;15.10;99.90
6520;DHT22;3293;51.690;5.982;2023-05-09T03:55:29;15.10;99.90
6520;DHT22;3293;51.690;5.982;2023-05-09T04:00:29;15.10;99.90
6520;DHT22;3293;51.690;5.982;2023-05-09T04:05:29;15.00;99.90
6520;DHT22;3293;51.690;5.982;2023-05-09T04:10:30;15.10;99.90
6520;DHT22;3293;51.690;5.982;2023-05-09T04:15:31;15.10;99.90
6520;DHT22;3293;51.690;5.982;2023-05-09T04:20:31;15.00;99.90
6520;DHT22;3293;51.690;5.982;2023-05-09T04:25:33;15.00;99.90
6520;DHT22;3293;51.690;5.982;2023-05-09T04:30:34;15.00;99.90
6520;DHT22;3293;51.690;5.982;2023-05-09T04:35:34;15.00;99.90
6520;DHT22;3293;51.690;5.982;2023-05-09T04:40:34;15.00;99.90
6520;DHT22;3293;51.690;5.982;2023-05-09T04:45:35;15.00;99.90
6520;DHT22;3293;51.690;5.982;2023-05-09T04:50:35;15.10;99.90
6520;DHT22;3293;51.690;5.982;2023-05-09T04:55:36;15.10;99.90
6520;DHT22;3293;51.690;5.982;2023-05-09T05:00:37;15.20;99.90
6520;DHT22;3293;51.690;5.982;2023-05-09T05:05:38;15.20;99.90
6520;DHT22;3293;51.690;5.982;2023-05-09T05:10:54;15.20;99.90
6520;DHT22;3293;51.690;5.982;2023-05-09T05:15:56;15.20;99.90
6520;DHT22;3293;51.690;5.982;2023-05-09T05:20:57;15.30;99.90
6520;DHT22;3293;51.690;5.982;2023-05-09T05:26:12;15.40;99.90
6520;DHT22;3293;51.690;5.982;2023-05-09T05:31:12;15.60;99.90
6520;DHT22;3293;51.690;5.982;2023-05-09T05:36:13;16.00;99.90
6520;DHT22;3293;51.690;5.982;2023-05-09T05:41:13;16.30;99.90
6520;DHT22;3293;51.690;5.982;2023-05-09T05:46:15;16.80;99.90
6520;DHT22;3293;51.690;5.982;2023-05-09T05:51:15;17.30;99.90
6520;DHT22;3293;51.690;5.982;2023-05-09T05:56:16;17.50;99.90
6520;DHT22;3293;51.690;5.982;2023-05-09T06:01:18;17.40;99.90
6520;DHT22;3293;51.690;5.982;2023-05-09T06:06:20;17.20;99.90
6520;DHT22;3293;51.690;5.982;2023-05-09T06:11:35;17.20;99.90
6520;DHT22;3293;51.690;5.982;2023-05-09T06:16:36;17.30;99.90
6520;DHT22;3293;51.690;5.982;2023-05-09T06:21:36;17.30;99.90
6520;DHT22;3293;51.690;5.982;2023-05-09T06:26:37;17.30;99.90
6520;DHT22;3293;51.690;5.982;2023-05-09T06:31:37;17.40;99.90
6520;DHT22;3293;51.690;5.982;2023-05-09T06:36:40;17.40;99.90
6520;DHT22;3293;51.690;5.982;2023-05-09T06:41:41;17.50;99.90
6520;DHT22;3293;51.690;5.982;2023-05-09T06:46:42;17.80;99.90
6520;DHT22;3293;51.690;5.982;2023-05-09T06:51:42;18.10;99.90
6520;DHT22;3293;51.690;5.982;2023-05-09T06:56:44;18.30;99.90
6520;DHT22;3293;51.690;5.982;2023-05-09T07:01:44;18.50;99.90
6520;DHT22;3293;51.690;5.982;2023-05-09T07:06:59;18.90;99.90
6520;DHT22;3293;51.690;5.982;2023-05-09T07:11:59;19.20;99.90
6520;DHT22;3293;51.690;5.982;2023-05-09T07:17:00;19.90;99.90
6520;DHT22;3293;51.690;5.982;2023-05-09T07:22:01;20.60;99.90
6520;DHT22;3293;51.690;5.982;2023-05-09T07:27:02;21.10;99.90
6520;DHT22;3293;51.690;5.982;2023-05-09T07:32:18;21.10;99.90
6520;DHT22;3293;51.690;5.982;2023-05-09T07:37:18;20.70;99.90
6520;DHT22;3293;51.690;5.982;2023-05-09T07:42:19;20.20;99.90
6520;DHT22;3293;51.690;5.982;2023-05-09T07:47:19;20.00;99.90
6520;DHT22;3293;51.690;5.982;2023-05-09T07:52:20;19.80;99.90
6520;DHT22;3293;51.690;5.982;2023-05-09T07:57:20;20.00;99.90
6520;DHT22;3293;51.690;5.982;2023-05-09T08:02:21;20.40;99.90
6520;DHT22;3293;51.690;5.982;2023-05-09T08:07:22;20.90;99.90
6520;DHT22;3293;51.690;5.982;2023-05-09T08:12:22;20.90;99.90
6520;DHT22;3293;51.690;5.982;2023-05-09T08:17:22;20.20;99.90
6520;DHT22;3293;51.690;5.982;2023-05-09T08:22:22;19.90;99.90
6520;DHT22;3293;51.690;5.982;2023-05-09T08:27:23;19.40;99.90
6520;DHT22;3293;51.690;5.982;2023-05-09T08:32:24;19.40;99.90
6520;DHT22;3293;51.690;5.982;2023-05-09T08:37:24;19.40;99.90
6520;DHT22;3293;51.690;5.982;2023-05-09T08:42:28;19.40;99.90
6520;DHT22;3293;51.690;5.982;2023-05-09T08:47:44;19.40;99.90
6520;DHT22;3293;51.690;5.982;2023-05-09T08:52:45;19.30;99.90
6520;DHT22;3293;51.690;5.982;2023-05-09T08:57:45;19.10;99.90
6520;DHT22;3293;51.690;5.982;2023-05-09T09:02:46;19.20;99.90
6520;DHT22;3293;51.690;5.982;2023-05-09T09:07:46;19.10;99.90
6520;DHT22;3293;51.690;5.982;2023-05-09T09:12:47;18.70;99.90
6520;DHT22;3293;51.690;5.982;2023-05-09T09:17:59;18.40;99.90
6520;DHT22;3293;51.690;5.982;2023-05-09T09:23:03;18.30;99.90
6520;DHT22;3293;51.690;5.982;2023-05-09T09:28:09;18.60;99.90
6520;DHT22;3293;51.690;5.982;2023-05-09T09:33:25;19.40;99.90
6520;DHT22;3293;51.690;5.982;2023-05-09T09:38:26;19.80;99.90
6520;DHT22;3293;51.690;5.982;2023-05-09T09:43:30;19.70;99.90
6520;DHT22;3293;51.690;5.982;2023-05-09T09:48:34;19.80;99.90
6520;DHT22;3293;51.690;5.982;2023-05-09T09:53:41;19.70;99.90
6520;DHT22;3293;51.690;5.982;2023-05-09T09:58:41;19.60;99.90
6520;DHT22;3293;51.690;5.982;2023-05-09T10:03:43;19.50;99.90
6520;DHT22;3293;51.690;5.982;2023-05-09T10:08:53;19.80;99.90
6520;DHT22;3293;51.690;5.982;2023-05-09T10:13:53;19.90;99.90
6520;DHT22;3293;51.690;5.982;2023-05-09T10:18:56;20.00;99.90
6520;DHT22;3293;51.690;5.982;2023-05-09T10:23:57;20.40;99.90
6520;DHT22;3293;51.690;5.982;2023-05-09T10:28:59;20.30;99.90
6520;DHT22;3293;51.690;5.982;2023-05-09T10:34:06;20.20;99.90
6520;DHT22;3293;51.690;5.982;2023-05-09T10:39:08;19.80;99.90
6520;DHT22;3293;51.690;5.982;2023-05-09T10:44:09;19.90;99.90
6520;DHT22;3293;51.690;5.982;2023-05-09T10:49:09;19.70;99.90
6520;DHT22;3293;51.690;5.982;2023-05-09T10:54:14;19.80;99.90
6520;DHT22;3293;51.690;5.982;2023-05-09T10:59:41;19.40;99.90
6520;DHT22;3293;51.690;5.982;2023-05-09T11:04:41;19.10;99.90
6520;DHT22;3293;51.690;5.982;2023-05-09T11:09:43;18.90;99.90
6520;DHT22;3293;51.690;5.982;2023-05-09T11:14:49;18.70;99.90
6520;DHT22;3293;51.690;5.982;2023-05-09T11:20:03;18.30;99.90
6520;DHT22;3293;51.690;5.982;2023-05-09T11:25:12;18.10;99.90
6520;DHT22;3293;51.690;5.982;2023-05-09T11:30:17;17.70;99.90
6520;DHT22;3293;51.690;5.982;2023-05-09T11:35:20;17.20;99.90
6520;DHT22;3293;51.690;5.982;2023-05-09T11:40:21;17.10;99.90
6520;DHT22;3293;51.690;5.982;2023-05-09T11:45:23;17.40;99.90
6520;DHT22;3293;51.690;5.982;2023-05-09T11:50:24;17.70;99.90
6520;DHT22;3293;51.690;5.982;2023-05-09T11:55:24;17.70;99.90
6520;DHT22;3293;51.690;5.982;2023-05-09T12:00:25;17.50;99.90
6520;DHT22;3293;51.690;5.982;2023-05-09T12:05:27;17.50;99.90
6520;DHT22;3293;51.690;5.982;2023-05-09T12:10:27;17.40;99.90
6520;DHT22;3293;51.690;5.982;2023-05-09T12:15:27;17.20;99.90
6520;DHT22;3293;51.690;5.982;2023-05-09T12:20:39;16.90;99.90
6520;DHT22;3293;51.690;5.982;2023-05-09T12:26:00;16.90;99.90
6520;DHT22;3293;51.690;5.982;2023-05-09T12:31:01;16.70;99.90
6520;DHT22;3293;51.690;5.982;2023-05-09T12:36:03;16.90;99.90
6520;DHT22;3293;51.690;5.982;2023-05-09T12:41:05;17.20;99.90
6520;DHT22;3293;51.690;5.982;2023-05-09T12:46:05;17.20;99.90
6520;DHT22;3293;51.690;5.982;2023-05-09T12:51:07;17.40;99.90
6520;DHT22;3293;51.690;5.982;2023-05-09T12:56:17;17.30;99.90
6520;DHT22;3293;51.690;5.982;2023-05-09T13:01:31;17.20;99.90
6520;DHT22;3293;51.690;5.982;2023-05-09T13:07:07;17.30;99.90
6520;DHT22;3293;51.690;5.982;2023-05-09T13:12:09;17.20;99.90
6520;DHT22;3293;51.690;5.982;2023-05-09T13:17:35;16.90;99.90
6520;DHT22;3293;51.690;5.982;2023-05-09T13:22:35;16.70;99.90
6520;DHT22;3293;51.690;5.982;2023-05-09T13:27:35;16.40;99.90
6520;DHT22;3293;51.690;5.982;2023-05-09T13:32:37;16.30;99.90
6520;DHT22;3293;51.690;5.982;2023-05-09T13:37:51;16.20;99.90
6520;DHT22;3293;51.690;5.982;2023-05-09T13:42:53;15.80;99.90
6520;DHT22;3293;51.690;5.982;2023-05-09T13:48:07;15.70;99.90
6520;DHT22;3293;51.690;5.982;2023-05-09T13:53:07;15.70;99.90
6520;DHT22;3293;51.690;5.982;2023-05-09T13:58:08;15.80;99.90
6520;DHT22;3293;51.690;5.982;2023-05-09T14:03:12;16.00;99.90
6520;DHT22;3293;51.690;5.982;2023-05-09T14:08:16;16.10;99.90
6520;DHT22;3293;51.690;5.982;2023-05-09T14:13:16;16.30;99.90
6520;DHT22;3293;51.690;5.982;2023-05-09T14:18:17;16.40;99.90
6520;DHT22;3293;51.690;5.982;2023-05-09T14:23:19;16.40;99.90
6520;DHT22;3293;51.690;5.982;2023-05-09T14:28:19;16.40;99.90
6520;DHT22;3293;51.690;5.982;2023-05-09T14:33:20;16.80;99.90
6520;DHT22;3293;51.690;5.982;2023-05-09T14:38:24;16.90;99.90
6520;DHT22;3293;51.690;5.982;2023-05-09T14:43:27;16.90;99.90
6520;DHT22;3293;51.690;5.982;2023-05-09T14:48:31;16.70;99.90
6520;DHT22;3293;51.690;5.982;2023-05-09T14:53:32;16.60;99.90
6520;DHT22;3293;51.690;5.982;2023-05-09T14:58:39;16.60;99.90
6520;DHT22;3293;51.690;5.982;2023-05-09T15:04:00;16.40;99.90
6520;DHT22;3293;51.690;5.982;2023-05-09T15:09:02;16.20;99.90
6520;DHT22;3293;51.690;5.982;2023-05-09T15:14:04;16.10;99.90
6520;DHT22;3293;51.690;5.982;2023-05-09T15:19:04;16.10;99.90
6520;DHT22;3293;51.690;5.982;2023-05-09T15:24:07;16.10;99.90
6520;DHT22;3293;51.690;5.982;2023-05-09T15:29:08;16.20;99.90
6520;DHT22;3293;51.690;5.982;2023-05-09T15:34:13;16.20;99.90
6520;DHT22;3293;51.690;5.982;2023-05-09T15:39:14;16.20;99.90
6520;DHT22;3293;51.690;5.982;2023-05-09T15:44:16;16.10;99.90
6520;DHT22;3293;51.690;5.982;2023-05-09T15:49:17;16.00;99.90
6520;DHT22;3293;51.690;5.982;2023-05-09T15:54:17;16.10;99.90
6520;DHT22;3293;51.690;5.982;2023-05-09T15:59:18;16.10;99.90
6520;DHT22;3293;51.690;5.982;2023-05-09T16:04:33;16.10;99.90
6520;DHT22;3293;51.690;5.982;2023-05-09T16:09:34;16.20;99.90
6520;DHT22;3293;51.690;5.982;2023-05-09T16:14:37;16.20;99.90
6520;DHT22;3293;51.690;5.982;2023-05-09T16:19:43;16.10;99.90
6520;DHT22;3293;51.690;5.982;2023-05-09T16:24:44;16.10;99.90
6520;DHT22;3293;51.690;5.982;2023-05-09T16:29:45;16.00;99.90
6520;DHT22;3293;51.690;5.982;2023-05-09T16:34:46;16.00;99.90
6520;DHT22;3293;51.690;5.982;2023-05-09T16:39:47;16.20;99.90
6520;DHT22;3293;51.690;5.982;2023-05-09T16:45:04;16.20;99.90
6520;DHT22;3293;51.690;5.982;2023-05-09T16:50:07;16.20;99.90
6520;DHT22;3293;51.690;5.982;2023-05-09T16:55:09;16.20;99.90
6520;DHT22;3293;51.690;5.982;2023-05-09T17:00:24;16.20;99.90
6520;DHT22;3293;51.690;5.982;2023-05-09T17:05:24;16.10;99.90
6520;DHT22;3293;51.690;5.982;2023-05-09T17:10:25;16.00;99.90
6520;DHT22;3293;51.690;5.982;2023-05-09T17:15:26;15.90;99.90
6520;DHT22;3293;51.690;5.982;2023-05-09T17:20:28;15.80;99.90
6520;DHT22;3293;51.690;5.982;2023-05-09T17:25:28;15.70;99.90
6520;DHT22;3293;51.690;5.982;2023-05-09T17:30:43;15.60;99.90
6520;DHT22;3293;51.690;5.982;2023-05-09T17:35:44;15.50;99.90
6520;DHT22;3293;51.690;5.982;2023-05-09T17:40:46;15.40;99.90
6520;DHT22;3293;51.690;5.982;2023-05-09T17:45:47;15.20;99.90
6520;DHT22;3293;51.690;5.982;2023-05-09T17:50:49;15.10;99.90
6520;DHT22;3293;51.690;5.982;2023-05-09T17:55:51;15.00;99.90
6520;DHT22;3293;51.690;5.982;2023-05-09T18:00:53;14.90;99.90
6520;DHT22;3293;51.690;5.982;2023-05-09T18:05:56;15.00;99.90
6520;DHT22;3293;51.690;5.982;2023-05-09T18:11:13;14.90;99.90
6520;DHT22;3293;51.690;5.982;2023-05-09T18:16:14;14.80;99.90
6520;DHT22;3293;51.690;5.982;2023-05-09T18:21:15;14.70;99.90
6520;DHT22;3293;51.690;5.982;2023-05-09T18:26:30;14.70;99.90
6520;DHT22;3293;51.690;5.982;2023-05-09T18:31:33;14.60;99.90
6520;DHT22;3293;51.690;5.982;2023-05-09T18:36:37;14.50;99.90
6520;DHT22;3293;51.690;5.982;2023-05-09T18:41:38;14.50;99.90
6520;DHT22;3293;51.690;5.982;2023-05-09T18:46:38;14.50;99.90
6520;DHT22;3293;51.690;5.982;2023-05-09T18:51:38;14.50;99.90
6520;DHT22;3293;51.690;5.982;2023-05-09T18:56:38;14.40;99.90
6520;DHT22;3293;51.690;5.982;2023-05-09T19:01:40;14.50;99.90
6520;DHT22;3293;51.690;5.982;2023-05-09T19:06:42;14.40;99.90
6520;DHT22;3293;51.690;5.982;2023-05-09T19:11:44;14.40;99.90
6520;DHT22;3293;51.690;5.982;2023-05-09T19:16:45;14.40;99.90
6520;DHT22;3293;51.690;5.982;2023-05-09T19:21:47;14.40;99.90
6520;DHT22;3293;51.690;5.982;2023-05-09T19:26:48;14.20;99.90
6520;DHT22;3293;51.690;5.982;2023-05-09T19:31:48;14.20;99.90
6520;DHT22;3293;51.690;5.982;2023-05-09T19:36:48;14.10;99.90
6520;DHT22;3293;51.690;5.982;2023-05-09T19:41:48;14.10;99.90
6520;DHT22;3293;51.690;5.982;2023-05-09T19:46:48;14.00;99.90
6520;DHT22;3293;51.690;5.982;2023-05-09T19:51:48;14.00;99.90
6520;DHT22;3293;51.690;5.982;2023-05-09T19:56:50;14.00;99.90
6520;DHT22;3293;51.690;5.982;2023-05-09T20:01:51;14.00;99.90
6520;DHT22;3293;51.690;5.982;2023-05-09T20:06:53;14.00;99.90
6520;DHT22;3293;51.690;5.982;2023-05-09T20:11:57;14.10;99.90
6520;DHT22;3293;51.690;5.982;2023-05-09T20:16:57;14.00;99.90
6520;DHT22;3293;51.690;5.982;2023-05-09T20:21:58;13.90;99.90
6520;DHT22;3293;51.690;5.982;2023-05-09T20:26:58;13.90;99.90
6520;DHT22;3293;51.690;5.982;2023-05-09T20:31:58;13.80;99.90
6520;DHT22;3293;51.690;5.982;2023-05-09T20:36:58;13.80;99.90
6520;DHT22;3293;51.690;5.982;2023-05-09T20:41:58;13.80;99.90
6520;DHT22;3293;51.690;5.982;2023-05-09T20:47:01;13.80;99.90
6520;DHT22;3293;51.690;5.982;2023-05-09T20:52:04;13.80;99.90
6520;DHT22;3293;51.690;5.982;2023-05-09T20:57:07;13.80;99.90
6520;DHT22;3293;51.690;5.982;2023-05-09T21:02:07;13.80;99.90
6520;DHT22;3293;51.690;5.982;2023-05-09T21:07:07;13.80;99.90
6520;DHT22;3293;51.690;5.982;2023-05-09T21:12:08;13.80;99.90
6520;DHT22;3293;51.690;5.982;2023-05-09T21:17:08;13.80;99.90
6520;DHT22;3293;51.690;5.982;2023-05-09T21:22:08;13.90;99.90
6520;DHT22;3293;51.690;5.982;2023-05-09T21:27:08;13.90;99.90
6520;DHT22;3293;51.690;5.982;2023-05-09T21:32:08;13.90;99.90
6520;DHT22;3293;51.690;5.982;2023-05-09T21:37:08;13.90;99.90
6520;DHT22;3293;51.690;5.982;2023-05-09T21:42:09;13.90;99.90
6520;DHT22;3293;51.690;5.982;2023-05-09T21:47:09;13.90;99.90
6520;DHT22;3293;51.690;5.982;2023-05-09T21:52:10;13.90;99.90
6520;DHT22;3293;51.690;5.982;2023-05-09T21:57:10;13.80;99.90
6520;DHT22;3293;51.690;5.982;2023-05-09T22:02:10;13.70;99.90
6520;DHT22;3293;51.690;5.982;2023-05-09T22:07:10;13.60;99.90
6520;DHT22;3293;51.690;5.982;2023-05-09T22:12:10;13.50;99.90
6520;DHT22;3293;51.690;5.982;2023-05-09T22:17:10;13.50;99.90
6520;DHT22;3293;51.690;5.982;2023-05-09T22:22:11;13.40;99.90
6520;DHT22;3293;51.690;5.982;2023-05-09T22:27:11;13.40;99.90
6520;DHT22;3293;51.690;5.982;2023-05-09T22:32:11;13.40;99.90
6520;DHT22;3293;51.690;5.982;2023-05-09T22:37:11;13.40;99.90
6520;DHT22;3293;51.690;5.982;2023-05-09T22:42:11;13.40;99.90
6520;DHT22;3293;51.690;5.982;2023-05-09T22:47:11;13.40;99.90
6520;DHT22;3293;51.690;5.982;2023-05-09T22:52:11;13.40;99.90
6520;DHT22;3293;51.690;5.982;2023-05-09T22:57:11;13.30;99.90
6520;DHT22;3293;51.690;5.982;2023-05-09T23:02:11;13.30;99.90
6520;DHT22;3293;51.690;5.982;2023-05-09T23:07:12;13.30;99.90
6520;DHT22;3293;51.690;5.982;2023-05-09T23:12:12;13.30;99.90
6520;DHT22;3293;51.690;5.982;2023-05-09T23:17:12;13.20;99.90
6520;DHT22;3293;51.690;5.982;2023-05-09T23:22:12;13.20;99.90
6520;DHT22;3293;51.690;5.982;2023-05-09T23:27:12;13.20;99.90
6520;DHT22;3293;51.690;5.982;2023-05-09T23:32:12;13.20;99.90
6520;DHT22;3293;51.690;5.982;2023-05-09T23:37:12;13.20;99.90
6520;DHT22;3293;51.690;5.982;2023-05-09T23:42:12;13.20;99.90
6520;DHT22;3293;51.690;5.982;2023-05-09T23:47:12;13.20;99.90
6520;DHT22;3293;51.690;5.982;2023-05-09T23:52:12;13.20;99.90
6520;DHT22;3293;51.690;5.982;2023-05-09T23:57:12;13.30;99.90
